sensor_id;sensor_type;location;lat;lon;timestamp;P1;durP1;ratioP1;P2;durP2;ratioP2
52978;SDS011;63430;53.186;6.598;2023-05-14T00:01:56;25.35;;;23.67;;
52978;SDS011;63430;53.186;6.598;2023-05-14T00:03:58;25.13;;;23.33;;
52978;SDS011;63430;53.186;6.598;2023-05-14T00:06:01;20.42;;;18.80;;
52978;SDS011;63430;53.186;6.598;2023-05-14T00:08:04;24.52;;;22.83;;
52978;SDS011;63430;53.186;6.598;2023-05-14T00:10:10;21.58;;;19.83;;
52978;SDS011;63430;53.186;6.598;2023-05-14T00:12:13;19.02;;;17.33;;
52978;SDS011;63430;53.186;6.598;2023-05-14T00:14:15;23.10;;;21.30;;
52978;SDS011;63430;53.186;6.598;2023-05-14T00:16:17;24.20;;;22.25;;
52978;SDS011;63430;53.186;6.598;2023-05-14T00:18:20;19.58;;;17.98;;
52978;SDS011;63430;53.186;6.598;2023-05-14T00:20:22;22.60;;;20.83;;
52978;SDS011;63430;53.186;6.598;2023-05-14T00:22:25;29.50;;;27.60;;
52978;SDS011;63430;53.186;6.598;2023-05-14T00:24:28;24.23;;;22.58;;
52978;SDS011;63430;53.186;6.598;2023-05-14T00:26:33;30.65;;;28.65;;
52978;SDS011;63430;53.186;6.598;2023-05-14T00:28:35;27.00;;;24.92;;
52978;SDS011;63430;53.186;6.598;2023-05-14T00:30:38;24.23;;;22.55;;
52978;SDS011;63430;53.186;6.598;2023-05-14T00:32:40;27.77;;;25.48;;
52978;SDS011;63430;53.186;6.598;2023-05-14T00:34:43;28.63;;;26.63;;
52978;SDS011;63430;53.186;6.598;2023-05-14T00:36:45;25.25;;;23.38;;
52978;SDS011;63430;53.186;6.598;2023-05-14T00:38:48;24.58;;;22.73;;
52978;SDS011;63430;53.186;6.598;2023-05-14T00:40:50;26.55;;;24.77;;
52978;SDS011;63430;53.186;6.598;2023-05-14T00:42:55;27.42;;;25.25;;
52978;SDS011;63430;53.186;6.598;2023-05-14T00:44:58;32.47;;;30.48;;
52978;SDS011;63430;53.186;6.598;2023-05-14T00:47:01;33.55;;;31.08;;
52978;SDS011;63430;53.186;6.598;2023-05-14T00:49:04;27.02;;;25.42;;
52978;SDS011;63430;53.186;6.598;2023-05-14T00:51:07;28.35;;;26.45;;
52978;SDS011;63430;53.186;6.598;2023-05-14T00:53:10;27.48;;;25.85;;
52978;SDS011;63430;53.186;6.598;2023-05-14T00:55:13;29.67;;;27.58;;
52978;SDS011;63430;53.186;6.598;2023-05-14T00:57:17;25.98;;;24.23;;
52978;SDS011;63430;53.186;6.598;2023-05-14T00:59:23;30.50;;;28.50;;
52978;SDS011;63430;53.186;6.598;2023-05-14T01:01:26;25.45;;;23.67;;
52978;SDS011;63430;53.186;6.598;2023-05-14T01:03:29;27.15;;;25.33;;
52978;SDS011;63430;53.186;6.598;2023-05-14T01:05:35;29.70;;;27.75;;
52978;SDS011;63430;53.186;6.598;2023-05-14T01:07:47;27.05;;;24.70;;
52978;SDS011;63430;53.186;6.598;2023-05-14T01:09:58;26.52;;;24.83;;
52978;SDS011;63430;53.186;6.598;2023-05-14T01:12:07;30.10;;;28.15;;
52978;SDS011;63430;53.186;6.598;2023-05-14T01:14:18;28.30;;;26.40;;
52978;SDS011;63430;53.186;6.598;2023-05-14T01:16:26;28.58;;;26.67;;
52978;SDS011;63430;53.186;6.598;2023-05-14T01:18:30;27.83;;;26.13;;
52978;SDS011;63430;53.186;6.598;2023-05-14T01:20:34;28.95;;;27.10;;
52978;SDS011;63430;53.186;6.598;2023-05-14T01:22:41;33.00;;;31.08;;
52978;SDS011;63430;53.186;6.598;2023-05-14T01:24:43;28.77;;;26.75;;
52978;SDS011;63430;53.186;6.598;2023-05-14T01:26:46;32.50;;;30.40;;
52978;SDS011;63430;53.186;6.598;2023-05-14T01:28:49;27.02;;;24.92;;
52978;SDS011;63430;53.186;6.598;2023-05-14T01:30:55;31.98;;;29.45;;
52978;SDS011;63430;53.186;6.598;2023-05-14T01:33:01;28.42;;;26.42;;
52978;SDS011;63430;53.186;6.598;2023-05-14T01:35:10;26.98;;;25.38;;
52978;SDS011;63430;53.186;6.598;2023-05-14T01:37:13;30.02;;;27.95;;
52978;SDS011;63430;53.186;6.598;2023-05-14T01:39:19;27.45;;;25.00;;
52978;SDS011;63430;53.186;6.598;2023-05-14T01:41:23;30.38;;;28.35;;
52978;SDS011;63430;53.186;6.598;2023-05-14T01:43:27;28.10;;;26.07;;
52978;SDS011;63430;53.186;6.598;2023-05-14T01:45:30;26.00;;;24.10;;
52978;SDS011;63430;53.186;6.598;2023-05-14T01:47:35;29.13;;;27.38;;
52978;SDS011;63430;53.186;6.598;2023-05-14T01:49:38;25.88;;;24.23;;
52978;SDS011;63430;53.186;6.598;2023-05-14T01:51:42;30.27;;;28.45;;
52978;SDS011;63430;53.186;6.598;2023-05-14T01:53:45;27.05;;;25.35;;
52978;SDS011;63430;53.186;6.598;2023-05-14T01:55:50;32.08;;;29.98;;
52978;SDS011;63430;53.186;6.598;2023-05-14T01:57:53;27.58;;;25.95;;
52978;SDS011;63430;53.186;6.598;2023-05-14T01:59:55;27.85;;;25.75;;
52978;SDS011;63430;53.186;6.598;2023-05-14T02:01:58;23.77;;;22.17;;
52978;SDS011;63430;53.186;6.598;2023-05-14T02:04:00;29.15;;;27.40;;
52978;SDS011;63430;53.186;6.598;2023-05-14T02:06:03;28.45;;;26.55;;
52978;SDS011;63430;53.186;6.598;2023-05-14T02:08:06;33.83;;;31.83;;
52978;SDS011;63430;53.186;6.598;2023-05-14T02:10:08;36.15;;;34.03;;
52978;SDS011;63430;53.186;6.598;2023-05-14T02:12:15;28.92;;;27.13;;
52978;SDS011;63430;53.186;6.598;2023-05-14T02:14:18;31.33;;;29.23;;
52978;SDS011;63430;53.186;6.598;2023-05-14T02:16:21;30.90;;;28.95;;
52978;SDS011;63430;53.186;6.598;2023-05-14T02:18:25;33.35;;;31.33;;
52978;SDS011;63430;53.186;6.598;2023-05-14T02:20:28;28.73;;;26.83;;
52978;SDS011;63430;53.186;6.598;2023-05-14T02:22:30;28.58;;;26.45;;
52978;SDS011;63430;53.186;6.598;2023-05-14T02:24:33;32.65;;;30.35;;
52978;SDS011;63430;53.186;6.598;2023-05-14T02:26:36;31.65;;;29.00;;
52978;SDS011;63430;53.186;6.598;2023-05-14T02:28:41;30.58;;;28.58;;
52978;SDS011;63430;53.186;6.598;2023-05-14T02:30:43;32.45;;;30.10;;
52978;SDS011;63430;53.186;6.598;2023-05-14T02:32:46;30.77;;;28.58;;
52978;SDS011;63430;53.186;6.598;2023-05-14T02:34:48;32.58;;;30.48;;
52978;SDS011;63430;53.186;6.598;2023-05-14T02:36:51;29.20;;;27.20;;
52978;SDS011;63430;53.186;6.598;2023-05-14T02:38:53;32.78;;;30.38;;
52978;SDS011;63430;53.186;6.598;2023-05-14T02:40:56;29.63;;;27.65;;
52978;SDS011;63430;53.186;6.598;2023-05-14T02:42:58;30.30;;;28.20;;
52978;SDS011;63430;53.186;6.598;2023-05-14T02:45:04;29.67;;;27.08;;
52978;SDS011;63430;53.186;6.598;2023-05-14T02:47:07;29.58;;;27.42;;
52978;SDS011;63430;53.186;6.598;2023-05-14T02:49:10;31.50;;;29.48;;
52978;SDS011;63430;53.186;6.598;2023-05-14T02:51:12;29.20;;;27.10;;
52978;SDS011;63430;53.186;6.598;2023-05-14T02:53:15;31.63;;;29.00;;
52978;SDS011;63430;53.186;6.598;2023-05-14T02:55:18;30.85;;;28.55;;
52978;SDS011;63430;53.186;6.598;2023-05-14T02:57:20;30.13;;;27.65;;
52978;SDS011;63430;53.186;6.598;2023-05-14T02:59:23;30.65;;;28.48;;
52978;SDS011;63430;53.186;6.598;2023-05-14T03:01:29;27.77;;;25.97;;
52978;SDS011;63430;53.186;6.598;2023-05-14T03:03:32;28.88;;;27.00;;
52978;SDS011;63430;53.186;6.598;2023-05-14T03:07:38;24.63;;;22.45;;
52978;SDS011;63430;53.186;6.598;2023-05-14T03:09:41;26.67;;;24.45;;
52978;SDS011;63430;53.186;6.598;2023-05-14T03:11:43;28.30;;;25.90;;
52978;SDS011;63430;53.186;6.598;2023-05-14T03:13:47;29.23;;;27.33;;
52978;SDS011;63430;53.186;6.598;2023-05-14T03:15:49;28.60;;;26.05;;
52978;SDS011;63430;53.186;6.598;2023-05-14T03:17:58;30.17;;;27.95;;
52978;SDS011;63430;53.186;6.598;2023-05-14T03:20:01;28.20;;;25.70;;
52978;SDS011;63430;53.186;6.598;2023-05-14T03:22:04;29.23;;;27.40;;
52978;SDS011;63430;53.186;6.598;2023-05-14T03:24:06;27.52;;;25.20;;
52978;SDS011;63430;53.186;6.598;2023-05-14T03:26:09;27.50;;;25.33;;
52978;SDS011;63430;53.186;6.598;2023-05-14T03:28:11;28.30;;;26.23;;
52978;SDS011;63430;53.186;6.598;2023-05-14T03:30:16;28.90;;;26.65;;
52978;SDS011;63430;53.186;6.598;2023-05-14T03:32:18;27.38;;;25.50;;
52978;SDS011;63430;53.186;6.598;2023-05-14T03:34:24;26.63;;;24.67;;
52978;SDS011;63430;53.186;6.598;2023-05-14T03:36:28;28.65;;;26.50;;
52978;SDS011;63430;53.186;6.598;2023-05-14T03:38:30;24.70;;;22.90;;
52978;SDS011;63430;53.186;6.598;2023-05-14T03:40:33;28.40;;;26.13;;
52978;SDS011;63430;53.186;6.598;2023-05-14T03:42:35;23.48;;;21.65;;
52978;SDS011;63430;53.186;6.598;2023-05-14T03:44:38;26.90;;;24.90;;
52978;SDS011;63430;53.186;6.598;2023-05-14T03:46:41;22.65;;;20.98;;
52978;SDS011;63430;53.186;6.598;2023-05-14T03:48:44;26.35;;;24.63;;
52978;SDS011;63430;53.186;6.598;2023-05-14T03:50:49;23.83;;;21.70;;
52978;SDS011;63430;53.186;6.598;2023-05-14T03:52:52;25.08;;;22.77;;
52978;SDS011;63430;53.186;6.598;2023-05-14T03:54:55;26.33;;;24.08;;
52978;SDS011;63430;53.186;6.598;2023-05-14T03:56:58;29.00;;;26.83;;
52978;SDS011;63430;53.186;6.598;2023-05-14T03:59:00;27.23;;;24.90;;
52978;SDS011;63430;53.186;6.598;2023-05-14T04:01:03;29.50;;;27.02;;
52978;SDS011;63430;53.186;6.598;2023-05-14T04:03:05;30.05;;;27.55;;
52978;SDS011;63430;53.186;6.598;2023-05-14T04:05:09;27.10;;;24.90;;
52978;SDS011;63430;53.186;6.598;2023-05-14T04:07:14;30.17;;;27.90;;
52978;SDS011;63430;53.186;6.598;2023-05-14T04:09:16;28.85;;;27.05;;
52978;SDS011;63430;53.186;6.598;2023-05-14T04:11:19;28.90;;;26.23;;
52978;SDS011;63430;53.186;6.598;2023-05-14T04:13:23;29.00;;;26.73;;
52978;SDS011;63430;53.186;6.598;2023-05-14T04:15:26;28.55;;;26.00;;
52978;SDS011;63430;53.186;6.598;2023-05-14T04:17:29;28.90;;;26.38;;
52978;SDS011;63430;53.186;6.598;2023-05-14T04:19:31;28.27;;;25.92;;
52978;SDS011;63430;53.186;6.598;2023-05-14T04:21:34;28.58;;;26.13;;
52978;SDS011;63430;53.186;6.598;2023-05-14T04:23:39;28.05;;;25.77;;
52978;SDS011;63430;53.186;6.598;2023-05-14T04:25:41;24.83;;;22.83;;
52978;SDS011;63430;53.186;6.598;2023-05-14T04:27:49;28.85;;;26.10;;
52978;SDS011;63430;53.186;6.598;2023-05-14T04:29:52;27.67;;;25.05;;
52978;SDS011;63430;53.186;6.598;2023-05-14T04:31:54;26.90;;;24.50;;
52978;SDS011;63430;53.186;6.598;2023-05-14T04:33:57;26.58;;;24.20;;
52978;SDS011;63430;53.186;6.598;2023-05-14T04:35:59;27.13;;;24.20;;
52978;SDS011;63430;53.186;6.598;2023-05-14T04:38:02;29.17;;;25.17;;
52978;SDS011;63430;53.186;6.598;2023-05-14T04:40:08;25.88;;;23.55;;
52978;SDS011;63430;53.186;6.598;2023-05-14T04:42:22;25.02;;;23.20;;
52978;SDS011;63430;53.186;6.598;2023-05-14T04:46:27;24.55;;;22.15;;
52978;SDS011;63430;53.186;6.598;2023-05-14T04:48:29;26.92;;;24.95;;
52978;SDS011;63430;53.186;6.598;2023-05-14T04:50:32;26.52;;;24.50;;
52978;SDS011;63430;53.186;6.598;2023-05-14T04:52:35;24.17;;;22.45;;
52978;SDS011;63430;53.186;6.598;2023-05-14T04:54:38;26.92;;;24.33;;
52978;SDS011;63430;53.186;6.598;2023-05-14T04:56:44;25.33;;;22.85;;
52978;SDS011;63430;53.186;6.598;2023-05-14T04:58:46;24.08;;;21.70;;
52978;SDS011;63430;53.186;6.598;2023-05-14T05:00:49;24.52;;;22.52;;
52978;SDS011;63430;53.186;6.598;2023-05-14T05:02:51;23.25;;;21.02;;
52978;SDS011;63430;53.186;6.598;2023-05-14T05:04:54;23.30;;;21.10;;
52978;SDS011;63430;53.186;6.598;2023-05-14T05:06:57;22.52;;;20.42;;
52978;SDS011;63430;53.186;6.598;2023-05-14T05:09:00;22.88;;;20.63;;
52978;SDS011;63430;53.186;6.598;2023-05-14T05:11:03;22.27;;;20.17;;
52978;SDS011;63430;53.186;6.598;2023-05-14T05:13:08;21.25;;;19.23;;
52978;SDS011;63430;53.186;6.598;2023-05-14T05:15:17;21.95;;;19.42;;
52978;SDS011;63430;53.186;6.598;2023-05-14T05:17:20;23.75;;;19.83;;
52978;SDS011;63430;53.186;6.598;2023-05-14T05:19:23;20.30;;;18.58;;
52978;SDS011;63430;53.186;6.598;2023-05-14T05:21:40;21.92;;;19.25;;
52978;SDS011;63430;53.186;6.598;2023-05-14T05:25:48;21.55;;;19.92;;
52978;SDS011;63430;53.186;6.598;2023-05-14T05:27:51;21.80;;;19.83;;
52978;SDS011;63430;53.186;6.598;2023-05-14T05:29:56;20.73;;;17.88;;
52978;SDS011;63430;53.186;6.598;2023-05-14T05:32:00;19.58;;;17.92;;
52978;SDS011;63430;53.186;6.598;2023-05-14T05:34:03;19.50;;;17.92;;
52978;SDS011;63430;53.186;6.598;2023-05-14T05:36:05;21.30;;;17.05;;
52978;SDS011;63430;53.186;6.598;2023-05-14T05:38:16;20.15;;;18.35;;
52978;SDS011;63430;53.186;6.598;2023-05-14T05:40:21;22.15;;;18.88;;
52978;SDS011;63430;53.186;6.598;2023-05-14T05:42:24;19.10;;;17.30;;
52978;SDS011;63430;53.186;6.598;2023-05-14T05:44:27;19.65;;;17.58;;
52978;SDS011;63430;53.186;6.598;2023-05-14T05:46:34;18.35;;;16.55;;
52978;SDS011;63430;53.186;6.598;2023-05-14T05:48:41;19.67;;;17.88;;
52978;SDS011;63430;53.186;6.598;2023-05-14T05:50:45;18.10;;;16.45;;
52978;SDS011;63430;53.186;6.598;2023-05-14T05:52:49;19.25;;;17.10;;
52978;SDS011;63430;53.186;6.598;2023-05-14T05:54:53;17.98;;;16.40;;
52978;SDS011;63430;53.186;6.598;2023-05-14T05:56:56;23.70;;;17.58;;
52978;SDS011;63430;53.186;6.598;2023-05-14T05:58:59;24.10;;;17.27;;
52978;SDS011;63430;53.186;6.598;2023-05-14T06:01:01;21.00;;;16.35;;
52978;SDS011;63430;53.186;6.598;2023-05-14T06:03:07;18.67;;;15.77;;
52978;SDS011;63430;53.186;6.598;2023-05-14T06:05:10;18.88;;;17.30;;
52978;SDS011;63430;53.186;6.598;2023-05-14T06:07:14;20.45;;;18.67;;
52978;SDS011;63430;53.186;6.598;2023-05-14T06:09:17;19.75;;;17.35;;
52978;SDS011;63430;53.186;6.598;2023-05-14T06:11:20;19.30;;;16.65;;
52978;SDS011;63430;53.186;6.598;2023-05-14T06:13:23;16.13;;;14.40;;
52978;SDS011;63430;53.186;6.598;2023-05-14T06:15:25;18.23;;;15.40;;
52978;SDS011;63430;53.186;6.598;2023-05-14T06:17:29;18.67;;;15.40;;
52978;SDS011;63430;53.186;6.598;2023-05-14T06:19:36;16.60;;;13.73;;
52978;SDS011;63430;53.186;6.598;2023-05-14T06:21:39;16.73;;;14.93;;
52978;SDS011;63430;53.186;6.598;2023-05-14T06:23:44;15.85;;;12.40;;
52978;SDS011;63430;53.186;6.598;2023-05-14T06:25:48;15.18;;;13.63;;
52978;SDS011;63430;53.186;6.598;2023-05-14T06:27:51;17.50;;;11.95;;
52978;SDS011;63430;53.186;6.598;2023-05-14T06:29:54;11.80;;;10.68;;
52978;SDS011;63430;53.186;6.598;2023-05-14T06:31:59;12.15;;;10.63;;
52978;SDS011;63430;53.186;6.598;2023-05-14T06:34:03;11.88;;;10.32;;
52978;SDS011;63430;53.186;6.598;2023-05-14T06:36:08;18.13;;;11.02;;
52978;SDS011;63430;53.186;6.598;2023-05-14T06:38:11;18.63;;;11.40;;
52978;SDS011;63430;53.186;6.598;2023-05-14T06:40:14;14.00;;;9.63;;
52978;SDS011;63430;53.186;6.598;2023-05-14T06:42:19;13.30;;;9.85;;
52978;SDS011;63430;53.186;6.598;2023-05-14T06:44:22;11.57;;;9.80;;
52978;SDS011;63430;53.186;6.598;2023-05-14T06:46:24;10.80;;;9.38;;
52978;SDS011;63430;53.186;6.598;2023-05-14T06:48:27;10.88;;;9.68;;
52978;SDS011;63430;53.186;6.598;2023-05-14T06:50:30;24.98;;;10.50;;
52978;SDS011;63430;53.186;6.598;2023-05-14T06:52:37;13.02;;;9.55;;
52978;SDS011;63430;53.186;6.598;2023-05-14T06:54:40;11.88;;;9.13;;
52978;SDS011;63430;53.186;6.598;2023-05-14T06:56:42;11.48;;;9.30;;
52978;SDS011;63430;53.186;6.598;2023-05-14T06:58:45;11.65;;;8.98;;
52978;SDS011;63430;53.186;6.598;2023-05-14T07:00:47;12.05;;;8.80;;
52978;SDS011;63430;53.186;6.598;2023-05-14T07:02:51;13.02;;;9.68;;
52978;SDS011;63430;53.186;6.598;2023-05-14T07:04:54;13.60;;;8.85;;
52978;SDS011;63430;53.186;6.598;2023-05-14T07:06:56;11.20;;;9.18;;
52978;SDS011;63430;53.186;6.598;2023-05-14T07:09:04;11.48;;;8.38;;
52978;SDS011;63430;53.186;6.598;2023-05-14T07:11:10;11.68;;;9.20;;
52978;SDS011;63430;53.186;6.598;2023-05-14T07:13:14;17.00;;;8.02;;
52978;SDS011;63430;53.186;6.598;2023-05-14T07:15:16;11.02;;;7.60;;
52978;SDS011;63430;53.186;6.598;2023-05-14T07:17:19;8.70;;;7.38;;
52978;SDS011;63430;53.186;6.598;2023-05-14T07:19:22;13.13;;;7.87;;
52978;SDS011;63430;53.186;6.598;2023-05-14T07:21:25;9.50;;;7.30;;
52978;SDS011;63430;53.186;6.598;2023-05-14T07:23:28;7.85;;;6.40;;
52978;SDS011;63430;53.186;6.598;2023-05-14T07:25:36;9.10;;;7.15;;
52978;SDS011;63430;53.186;6.598;2023-05-14T07:27:38;12.57;;;6.78;;
52978;SDS011;63430;53.186;6.598;2023-05-14T07:29:41;8.15;;;6.70;;
52978;SDS011;63430;53.186;6.598;2023-05-14T07:31:43;12.45;;;6.97;;
52978;SDS011;63430;53.186;6.598;2023-05-14T07:33:46;14.40;;;7.45;;
52978;SDS011;63430;53.186;6.598;2023-05-14T07:35:48;11.15;;;7.05;;
52978;SDS011;63430;53.186;6.598;2023-05-14T07:37:51;12.07;;;6.10;;
52978;SDS011;63430;53.186;6.598;2023-05-14T07:39:54;13.30;;;6.93;;
52978;SDS011;63430;53.186;6.598;2023-05-14T07:41:59;10.65;;;7.47;;
52978;SDS011;63430;53.186;6.598;2023-05-14T07:44:02;10.27;;;7.22;;
52978;SDS011;63430;53.186;6.598;2023-05-14T07:46:05;8.23;;;7.30;;
52978;SDS011;63430;53.186;6.598;2023-05-14T07:48:08;9.55;;;7.13;;
52978;SDS011;63430;53.186;6.598;2023-05-14T07:50:11;8.70;;;6.72;;
52978;SDS011;63430;53.186;6.598;2023-05-14T07:52:13;8.65;;;7.45;;
52978;SDS011;63430;53.186;6.598;2023-05-14T07:54:16;15.93;;;7.63;;
52978;SDS011;63430;53.186;6.598;2023-05-14T07:56:18;14.18;;;7.80;;
52978;SDS011;63430;53.186;6.598;2023-05-14T07:58:24;14.13;;;8.35;;
52978;SDS011;63430;53.186;6.598;2023-05-14T08:00:28;13.60;;;8.00;;
52978;SDS011;63430;53.186;6.598;2023-05-14T08:02:34;13.77;;;8.02;;
52978;SDS011;63430;53.186;6.598;2023-05-14T08:04:36;10.57;;;8.30;;
52978;SDS011;63430;53.186;6.598;2023-05-14T08:06:41;11.32;;;8.27;;
52978;SDS011;63430;53.186;6.598;2023-05-14T08:08:44;11.73;;;8.43;;
52978;SDS011;63430;53.186;6.598;2023-05-14T08:10:47;11.88;;;7.97;;
52978;SDS011;63430;53.186;6.598;2023-05-14T08:12:50;16.23;;;8.18;;
52978;SDS011;63430;53.186;6.598;2023-05-14T08:14:55;9.70;;;7.65;;
52978;SDS011;63430;53.186;6.598;2023-05-14T08:16:59;18.70;;;8.82;;
52978;SDS011;63430;53.186;6.598;2023-05-14T08:19:01;11.15;;;8.00;;
52978;SDS011;63430;53.186;6.598;2023-05-14T08:21:04;15.87;;;8.60;;
52978;SDS011;63430;53.186;6.598;2023-05-14T08:23:07;9.98;;;7.50;;
52978;SDS011;63430;53.186;6.598;2023-05-14T08:25:10;13.65;;;7.80;;
52978;SDS011;63430;53.186;6.598;2023-05-14T08:27:13;8.82;;;7.25;;
52978;SDS011;63430;53.186;6.598;2023-05-14T08:29:17;10.52;;;7.38;;
52978;SDS011;63430;53.186;6.598;2023-05-14T08:31:22;13.52;;;7.65;;
52978;SDS011;63430;53.186;6.598;2023-05-14T08:33:24;8.55;;;6.70;;
52978;SDS011;63430;53.186;6.598;2023-05-14T08:35:27;10.27;;;7.72;;
52978;SDS011;63430;53.186;6.598;2023-05-14T08:37:29;7.95;;;6.90;;
52978;SDS011;63430;53.186;6.598;2023-05-14T08:39:32;9.73;;;7.35;;
52978;SDS011;63430;53.186;6.598;2023-05-14T08:41:34;9.00;;;7.38;;
52978;SDS011;63430;53.186;6.598;2023-05-14T08:43:41;9.73;;;7.25;;
52978;SDS011;63430;53.186;6.598;2023-05-14T08:45:50;9.98;;;6.82;;
52978;SDS011;63430;53.186;6.598;2023-05-14T08:48:01;8.00;;;6.60;;
52978;SDS011;63430;53.186;6.598;2023-05-14T08:50:10;13.75;;;7.53;;
52978;SDS011;63430;53.186;6.598;2023-05-14T08:52:12;8.68;;;7.40;;
52978;SDS011;63430;53.186;6.598;2023-05-14T08:54:20;10.05;;;7.63;;
52978;SDS011;63430;53.186;6.598;2023-05-14T08:56:25;10.80;;;7.82;;
52978;SDS011;63430;53.186;6.598;2023-05-14T08:58:28;10.30;;;7.78;;
52978;SDS011;63430;53.186;6.598;2023-05-14T09:00:33;10.82;;;7.45;;
52978;SDS011;63430;53.186;6.598;2023-05-14T09:02:36;7.78;;;7.03;;
52978;SDS011;63430;53.186;6.598;2023-05-14T09:04:43;11.05;;;7.30;;
52978;SDS011;63430;53.186;6.598;2023-05-14T09:06:48;13.05;;;9.68;;
52978;SDS011;63430;53.186;6.598;2023-05-14T09:08:51;14.07;;;8.35;;
52978;SDS011;63430;53.186;6.598;2023-05-14T09:10:57;13.27;;;9.20;;
52978;SDS011;63430;53.186;6.598;2023-05-14T09:12:59;11.23;;;8.40;;
52978;SDS011;63430;53.186;6.598;2023-05-14T09:15:02;9.65;;;8.10;;
52978;SDS011;63430;53.186;6.598;2023-05-14T09:17:08;10.45;;;9.15;;
52978;SDS011;63430;53.186;6.598;2023-05-14T09:19:13;11.82;;;9.93;;
52978;SDS011;63430;53.186;6.598;2023-05-14T09:25:28;11.05;;;8.98;;
52978;SDS011;63430;53.186;6.598;2023-05-14T09:27:34;11.15;;;9.45;;
52978;SDS011;63430;53.186;6.598;2023-05-14T09:29:37;13.07;;;10.03;;
52978;SDS011;63430;53.186;6.598;2023-05-14T09:31:42;12.32;;;11.18;;
52978;SDS011;63430;53.186;6.598;2023-05-14T09:33:48;13.32;;;11.82;;
52978;SDS011;63430;53.186;6.598;2023-05-14T09:35:51;13.00;;;11.70;;
52978;SDS011;63430;53.186;6.598;2023-05-14T09:38:01;15.52;;;14.23;;
52978;SDS011;63430;53.186;6.598;2023-05-14T09:40:05;12.07;;;10.90;;
52978;SDS011;63430;53.186;6.598;2023-05-14T09:42:09;15.07;;;11.88;;
52978;SDS011;63430;53.186;6.598;2023-05-14T09:44:12;19.08;;;16.58;;
52978;SDS011;63430;53.186;6.598;2023-05-14T09:46:15;23.55;;;21.55;;
52978;SDS011;63430;53.186;6.598;2023-05-14T09:48:21;20.35;;;19.05;;
52978;SDS011;63430;53.186;6.598;2023-05-14T09:50:24;19.88;;;18.58;;
52978;SDS011;63430;53.186;6.598;2023-05-14T09:52:27;25.63;;;23.65;;
52978;SDS011;63430;53.186;6.598;2023-05-14T09:54:32;34.03;;;31.92;;
52978;SDS011;63430;53.186;6.598;2023-05-14T09:56:40;30.20;;;28.10;;
52978;SDS011;63430;53.186;6.598;2023-05-14T09:58:43;19.92;;;18.17;;
52978;SDS011;63430;53.186;6.598;2023-05-14T10:00:48;19.45;;;17.73;;
52978;SDS011;63430;53.186;6.598;2023-05-14T10:02:52;19.33;;;18.02;;
52978;SDS011;63430;53.186;6.598;2023-05-14T10:04:59;29.08;;;27.33;;
52978;SDS011;63430;53.186;6.598;2023-05-14T10:07:04;19.52;;;18.17;;
52978;SDS011;63430;53.186;6.598;2023-05-14T10:09:09;14.10;;;12.65;;
52978;SDS011;63430;53.186;6.598;2023-05-14T10:11:17;20.10;;;18.25;;
52978;SDS011;63430;53.186;6.598;2023-05-14T10:13:26;24.58;;;23.08;;
52978;SDS011;63430;53.186;6.598;2023-05-14T10:15:35;37.20;;;34.97;;
52978;SDS011;63430;53.186;6.598;2023-05-14T10:17:41;41.80;;;39.13;;
52978;SDS011;63430;53.186;6.598;2023-05-14T10:19:49;37.90;;;35.83;;
52978;SDS011;63430;53.186;6.598;2023-05-14T10:21:56;48.83;;;46.22;;
52978;SDS011;63430;53.186;6.598;2023-05-14T10:24:05;20.30;;;19.00;;
52978;SDS011;63430;53.186;6.598;2023-05-14T10:26:11;46.83;;;44.53;;
52978;SDS011;63430;53.186;6.598;2023-05-14T10:28:17;23.27;;;21.80;;
52978;SDS011;63430;53.186;6.598;2023-05-14T10:30:20;9.18;;;8.38;;
52978;SDS011;63430;53.186;6.598;2023-05-14T10:32:28;10.05;;;7.82;;
52978;SDS011;63430;53.186;6.598;2023-05-14T10:34:34;10.20;;;8.20;;
52978;SDS011;63430;53.186;6.598;2023-05-14T10:36:45;10.10;;;7.50;;
52978;SDS011;63430;53.186;6.598;2023-05-14T10:38:47;35.15;;;33.00;;
52978;SDS011;63430;53.186;6.598;2023-05-14T10:41:00;60.25;;;57.22;;
52978;SDS011;63430;53.186;6.598;2023-05-14T10:43:05;12.90;;;8.32;;
52978;SDS011;63430;53.186;6.598;2023-05-14T10:45:13;10.50;;;7.80;;
52978;SDS011;63430;53.186;6.598;2023-05-14T10:47:17;8.52;;;7.47;;
52978;SDS011;63430;53.186;6.598;2023-05-14T10:49:22;9.07;;;8.17;;
52978;SDS011;63430;53.186;6.598;2023-05-14T10:51:46;42.92;;;40.50;;
52978;SDS011;63430;53.186;6.598;2023-05-14T10:53:50;46.10;;;43.53;;
52978;SDS011;63430;53.186;6.598;2023-05-14T10:55:53;83.95;;;79.93;;
52978;SDS011;63430;53.186;6.598;2023-05-14T10:57:57;16.83;;;15.30;;
52978;SDS011;63430;53.186;6.598;2023-05-14T11:00:02;10.45;;;8.35;;
52978;SDS011;63430;53.186;6.598;2023-05-14T11:02:20;11.15;;;8.77;;
52978;SDS011;63430;53.186;6.598;2023-05-14T11:04:26;20.15;;;17.75;;
52978;SDS011;63430;53.186;6.598;2023-05-14T11:06:29;11.07;;;9.30;;
52978;SDS011;63430;53.186;6.598;2023-05-14T11:08:32;10.23;;;8.03;;
52978;SDS011;63430;53.186;6.598;2023-05-14T11:10:35;11.27;;;7.18;;
52978;SDS011;63430;53.186;6.598;2023-05-14T11:12:39;26.77;;;24.95;;
52978;SDS011;63430;53.186;6.598;2023-05-14T11:16:46;12.45;;;11.07;;
52978;SDS011;63430;53.186;6.598;2023-05-14T11:18:56;11.95;;;10.60;;
52978;SDS011;63430;53.186;6.598;2023-05-14T11:21:03;13.95;;;9.15;;
52978;SDS011;63430;53.186;6.598;2023-05-14T11:23:07;36.15;;;34.08;;
52978;SDS011;63430;53.186;6.598;2023-05-14T11:25:10;10.03;;;8.70;;
52978;SDS011;63430;53.186;6.598;2023-05-14T11:27:17;24.40;;;22.88;;
52978;SDS011;63430;53.186;6.598;2023-05-14T11:29:20;46.72;;;44.30;;
52978;SDS011;63430;53.186;6.598;2023-05-14T11:31:23;15.02;;;13.75;;
52978;SDS011;63430;53.186;6.598;2023-05-14T11:33:26;10.98;;;9.80;;
52978;SDS011;63430;53.186;6.598;2023-05-14T11:35:35;9.27;;;8.30;;
52978;SDS011;63430;53.186;6.598;2023-05-14T11:37:39;8.82;;;7.07;;
52978;SDS011;63430;53.186;6.598;2023-05-14T11:39:45;7.50;;;6.80;;
52978;SDS011;63430;53.186;6.598;2023-05-14T11:41:49;8.73;;;7.82;;
52978;SDS011;63430;53.186;6.598;2023-05-14T11:43:52;6.35;;;5.80;;
52978;SDS011;63430;53.186;6.598;2023-05-14T11:45:55;9.53;;;6.50;;
52978;SDS011;63430;53.186;6.598;2023-05-14T11:47:57;6.72;;;6.13;;
52978;SDS011;63430;53.186;6.598;2023-05-14T11:50:00;7.03;;;6.50;;
52978;SDS011;63430;53.186;6.598;2023-05-14T11:52:06;8.25;;;7.63;;
52978;SDS011;63430;53.186;6.598;2023-05-14T11:54:14;13.15;;;12.35;;
52978;SDS011;63430;53.186;6.598;2023-05-14T11:56:17;15.55;;;14.52;;
52978;SDS011;63430;53.186;6.598;2023-05-14T11:58:20;8.73;;;7.93;;
52978;SDS011;63430;53.186;6.598;2023-05-14T12:00:22;7.53;;;6.80;;
52978;SDS011;63430;53.186;6.598;2023-05-14T12:02:27;12.98;;;12.00;;
52978;SDS011;63430;53.186;6.598;2023-05-14T12:04:30;7.65;;;7.05;;
52978;SDS011;63430;53.186;6.598;2023-05-14T12:06:33;7.38;;;6.78;;
52978;SDS011;63430;53.186;6.598;2023-05-14T12:08:38;8.10;;;7.15;;
52978;SDS011;63430;53.186;6.598;2023-05-14T12:10:41;8.80;;;8.00;;
52978;SDS011;63430;53.186;6.598;2023-05-14T12:12:44;9.45;;;8.55;;
52978;SDS011;63430;53.186;6.598;2023-05-14T12:14:48;6.43;;;5.95;;
52978;SDS011;63430;53.186;6.598;2023-05-14T12:16:51;7.15;;;6.65;;
52978;SDS011;63430;53.186;6.598;2023-05-14T12:18:58;6.80;;;6.30;;
52978;SDS011;63430;53.186;6.598;2023-05-14T12:21:02;8.02;;;7.43;;
52978;SDS011;63430;53.186;6.598;2023-05-14T12:23:08;8.10;;;7.40;;
52978;SDS011;63430;53.186;6.598;2023-05-14T12:25:14;8.48;;;6.47;;